Time;durP1;ratioP1;P1;durP2;ratioP2;P2;SDS_P1;SDS_P2;PMS_P1;PMS_P2;Temp;Humidity;BMP_temperature;BMP_pressure;BME280_temperature;BME280_humidity;BME280_pressure;Samples;Min_cycle;Max_cycle;Signal;HPM_P1;HPM_P2
2021/04/27 00:00:58;;;;;;;5.80;5.18;;;11.00;99.90;;;;;;5050305;28;20124;-80
2021/04/27 00:03:24;;;;;;;5.90;5.40;;;11.00;99.90;;;;;;5050686;28;20025;-80
2021/04/27 00:05:50;;;;;;;5.38;4.88;;;11.00;99.90;;;;;;5051789;28;20025;-80
2021/04/27 00:08:15;;;;;;;5.20;4.50;;;11.00;99.90;;;;;;5052140;28;20478;-80
2021/04/27 00:10:41;;;;;;;6.28;5.72;;;11.00;99.90;;;;;;5051747;28;20025;-80
2021/04/27 00:13:08;;;;;;;4.18;3.88;;;11.00;99.90;;;;;;5040176;28;20033;-80
2021/04/27 00:15:34;;;;;;;5.28;4.82;;;11.00;99.90;;;;;;5029974;28;20522;-80
2021/04/27 00:17:59;;;;;;;5.70;5.13;;;11.00;99.90;;;;;;5034317;28;20069;-80
2021/04/27 00:20:26;;;;;;;4.72;4.32;;;11.00;99.90;;;;;;5050843;28;20025;-80
2021/04/27 00:22:56;;;;;;;4.50;4.10;;;10.90;99.90;;;;;;5046178;28;20033;-80
2021/04/27 00:25:23;;;;;;;4.40;3.45;;;10.90;99.90;;;;;;5031968;28;20063;-80
2021/04/27 00:27:50;;;;;;;6.03;3.95;;;10.90;99.90;;;;;;5029906;28;20491;-80
2021/04/27 00:30:18;;;;;;;3.55;3.25;;;10.90;99.90;;;;;;5031132;28;20148;-80
2021/04/27 00:32:44;;;;;;;4.43;4.10;;;11.00;99.90;;;;;;5031738;28;20054;-80
2021/04/27 00:35:11;;;;;;;4.00;3.70;;;10.90;99.90;;;;;;5031590;28;20033;-80
2021/04/27 00:37:37;;;;;;;4.07;2.75;;;11.00;99.90;;;;;;5031632;28;20448;-80
2021/04/27 00:40:06;;;;;;;3.20;2.60;;;11.00;99.90;;;;;;5031937;28;20026;-80
2021/04/27 00:42:38;;;;;;;2.80;2.60;;;11.00;99.90;;;;;;5031103;28;20120;-80
2021/04/27 00:45:09;;;;;;;3.60;2.63;;;11.00;99.90;;;;;;5035741;28;20077;-80
2021/04/27 00:47:36;;;;;;;2.72;2.53;;;10.90;99.90;;;;;;5035797;28;20021;-80
2021/04/27 00:50:05;;;;;;;3.88;2.70;;;10.80;99.90;;;;;;5035525;28;20144;-80
2021/04/27 00:52:31;;;;;;;2.72;2.53;;;10.80;99.90;;;;;;5034111;28;20404;-80
2021/04/27 00:54:57;;;;;;;4.13;2.80;;;10.90;99.90;;;;;;5035226;28;20044;-80
2021/04/27 00:57:23;;;;;;;4.50;3.10;;;10.90;99.90;;;;;;5035715;28;20026;-80
2021/04/27 00:59:52;;;;;;;2.38;2.17;;;10.90;99.90;;;;;;5035063;28;20018;-80
2021/04/27 01:02:18;;;;;;;2.95;2.63;;;11.00;99.90;;;;;;5035246;28;20036;-80
2021/04/27 01:04:43;;;;;;;2.60;2.40;;;11.00;99.90;;;;;;5035068;28;20394;-80
2021/04/27 01:07:12;;;;;;;3.67;2.42;;;11.00;99.90;;;;;;5035282;28;20506;-80
2021/04/27 01:09:46;;;;;;;2.92;2.50;;;11.00;99.90;;;;;;5035217;28;20132;-80
2021/04/27 01:12:29;;;;;;;4.60;2.22;;;11.00;99.90;;;;;;5034244;28;20038;-80
2021/04/27 01:15:18;;;;;;;2.70;2.50;;;11.00;99.90;;;;;;5015292;28;20026;-80
2021/04/27 01:17:45;;;;;;;3.17;2.60;;;10.90;99.90;;;;;;5015271;28;20028;-80
2021/04/27 01:20:16;;;;;;;2.72;2.53;;;11.00;99.90;;;;;;5015041;28;20113;-80
2021/04/27 01:22:57;;;;;;;4.38;3.63;;;11.00;99.90;;;;;;5015348;28;20065;-80
2021/04/27 01:25:45;;;;;;;;;;;11.00;99.90;;;;;;5034577;28;20054;-80
2021/04/27 01:28:12;;;;;;;4.40;3.17;;;10.90;99.90;;;;;;5029275;28;19956;-80
2021/04/27 01:30:41;;;;;;;3.20;2.90;;;10.90;99.90;;;;;;5034964;28;20036;-80
2021/04/27 01:33:14;;;;;;;3.45;3.20;;;10.80;99.90;;;;;;5033005;28;20116;-80
2021/04/27 01:35:41;;;;;;;6.97;3.67;;;10.80;99.90;;;;;;5034820;28;20049;-80
2021/04/27 01:38:08;;;;;;;9.25;3.97;;;10.80;99.90;;;;;;5034828;28;20116;-80
2021/04/27 01:40:34;;;;;;;9.07;4.10;;;10.80;99.90;;;;;;5034865;28;20108;-80
2021/04/27 01:43:02;;;;;;;7.70;3.58;;;10.70;99.90;;;;;;5033410;28;20104;-80
2021/04/27 01:45:29;;;;;;;9.10;3.15;;;10.70;99.90;;;;;;5049003;28;20021;-80
2021/04/27 01:47:56;;;;;;;12.13;3.25;;;10.70;99.90;;;;;;5038937;28;20026;-80
2021/04/27 01:50:23;;;;;;;3.60;3.17;;;10.60;99.90;;;;;;5034669;28;20013;-80
2021/04/27 01:52:53;;;;;;;3.55;2.63;;;10.60;99.90;;;;;;5032921;28;20028;-77
2021/04/27 01:55:20;;;;;;;2.97;2.78;;;10.60;99.90;;;;;;5035510;28;20464;-79
2021/04/27 01:57:46;;;;;;;3.42;2.55;;;10.60;99.90;;;;;;5054362;28;20040;-80
2021/04/27 02:00:16;;;;;;;2.40;2.20;;;10.70;99.90;;;;;;5054046;28;20087;-80
2021/04/27 02:02:43;;;;;;;2.58;2.38;;;10.70;99.90;;;;;;5054177;28;20032;-80
2021/04/27 02:05:11;;;;;;;2.22;2.03;;;10.80;99.90;;;;;;5054059;28;20494;-80
2021/04/27 02:07:37;;;;;;;2.50;2.30;;;10.80;99.90;;;;;;5054058;28;20055;-80
2021/04/27 02:10:06;;;;;;;2.42;2.13;;;10.80;99.90;;;;;;5048104;28;20022;-80
2021/04/27 02:12:34;;;;;;;2.38;2.17;;;10.70;99.90;;;;;;5033523;28;20483;-80
2021/04/27 02:15:00;;;;;;;2.47;2.13;;;10.70;99.90;;;;;;5034079;28;20408;-80
2021/04/27 02:17:36;;;;;;;2.08;1.98;;;10.70;99.90;;;;;;5046865;28;20052;-80
2021/04/27 02:20:04;;;;;;;2.40;1.75;;;10.80;99.90;;;;;;5053811;28;20035;-80
2021/04/27 02:22:31;;;;;;;2.15;1.83;;;10.90;99.90;;;;;;5053963;28;20112;-80
2021/04/27 02:24:59;;;;;;;3.08;2.88;;;10.90;99.90;;;;;;5036113;28;20059;-80
2021/04/27 02:27:26;;;;;;;3.38;3.08;;;10.90;99.90;;;;;;5033492;28;20124;-80
2021/04/27 02:29:53;;;;;;;5.75;4.38;;;10.90;99.90;;;;;;5033781;28;20061;-80
2021/04/27 02:32:20;;;;;;;5.38;4.72;;;10.80;99.90;;;;;;5033323;28;20026;-80
2021/04/27 02:34:47;;;;;;;5.32;4.85;;;10.70;99.90;;;;;;5033701;28;20026;-80
2021/04/27 02:37:15;;;;;;;6.07;5.57;;;10.60;99.90;;;;;;5032135;28;20017;-80
2021/04/27 02:39:41;;;;;;;6.10;5.50;;;10.70;99.90;;;;;;5033685;28;20451;-80
2021/04/27 02:42:07;;;;;;;5.32;4.82;;;10.90;99.90;;;;;;5031313;28;20049;-80
2021/04/27 02:44:33;;;;;;;5.90;4.72;;;10.80;99.90;;;;;;5046628;28;20127;-80
2021/04/27 02:46:59;;;;;;;5.55;5.03;;;10.80;99.90;;;;;;5044448;28;20395;-80
2021/04/27 02:49:24;;;;;;;6.20;5.60;;;10.90;99.90;;;;;;5033346;28;20132;-80
2021/04/27 02:51:50;;;;;;;5.80;5.30;;;10.90;99.90;;;;;;5033340;28;20491;-80
2021/04/27 02:54:16;;;;;;;6.70;5.32;;;10.90;99.90;;;;;;5033397;28;20431;-80
2021/04/27 02:56:42;;;;;;;10.38;5.35;;;10.90;99.90;;;;;;5033178;28;20483;-80
2021/04/27 02:59:08;;;;;;;6.70;5.55;;;10.90;99.90;;;;;;5032980;28;20032;-80
2021/04/27 03:01:35;;;;;;;13.02;5.57;;;10.90;99.90;;;;;;5032870;28;20091;-80
2021/04/27 03:04:01;;;;;;;7.55;5.20;;;10.90;99.90;;;;;;5033107;28;20049;-80
2021/04/27 03:06:26;;;;;;;10.35;6.00;;;10.90;99.90;;;;;;5032992;28;20451;-80
2021/04/27 03:08:52;;;;;;;8.18;5.25;;;10.90;99.90;;;;;;5033055;28;20049;-80
2021/04/27 03:11:18;;;;;;;13.73;5.53;;;10.90;99.90;;;;;;5032867;28;20521;-80
2021/04/27 03:13:44;;;;;;;13.95;5.53;;;10.90;99.90;;;;;;5032974;28;20064;-80
2021/04/27 03:16:10;;;;;;;19.17;6.60;;;10.80;99.90;;;;;;5032542;28;20018;-80
2021/04/27 03:18:36;;;;;;;14.57;5.50;;;10.70;99.90;;;;;;5033027;28;20021;-80
2021/04/27 03:21:02;;;;;;;29.55;5.90;;;10.60;99.90;;;;;;5032812;28;20047;-80
2021/04/27 03:23:27;;;;;;;15.63;5.55;;;10.50;99.90;;;;;;5032799;28;20025;-80
2021/04/27 03:25:53;;;;;;;29.77;5.32;;;10.50;99.90;;;;;;5032726;28;20033;-80
2021/04/27 03:28:19;;;;;;;15.88;5.75;;;10.50;99.90;;;;;;5032624;28;20026;-80
2021/04/27 03:30:45;;;;;;;16.00;5.43;;;10.40;99.90;;;;;;5036962;28;20112;-80
2021/04/27 03:33:11;;;;;;;6.20;5.32;;;10.40;99.90;;;;;;5032240;28;20489;-80
2021/04/27 03:35:37;;;;;;;8.27;5.00;;;10.60;99.90;;;;;;5032030;28;20029;-80
2021/04/27 03:38:03;;;;;;;5.05;4.65;;;10.70;99.90;;;;;;5032663;28;20014;-80
2021/04/27 03:40:29;;;;;;;4.72;3.70;;;10.70;99.90;;;;;;5032300;28;20120;-80
2021/04/27 03:42:55;;;;;;;9.25;3.90;;;10.80;99.90;;;;;;5032439;28;20033;-80
2021/04/27 03:45:34;;;;;;;4.35;3.90;;;10.80;99.90;;;;;;5031893;28;20400;-80
2021/04/27 03:48:01;;;;;;;5.43;3.80;;;10.70;99.90;;;;;;5031285;28;20438;-80
2021/04/27 03:50:27;;;;;;;6.95;4.30;;;10.80;99.90;;;;;;5032194;28;20041;-80
2021/04/27 03:52:53;;;;;;;6.13;4.28;;;10.80;99.90;;;;;;5032270;28;20103;-80
2021/04/27 03:55:19;;;;;;;6.97;4.53;;;10.90;99.90;;;;;;5032130;28;20376;-80
2021/04/27 03:57:44;;;;;;;5.53;3.47;;;10.90;99.90;;;;;;5045388;28;20066;-80
2021/04/27 04:00:11;;;;;;;12.95;4.13;;;10.70;99.90;;;;;;5052069;28;20087;-80
2021/04/27 04:02:36;;;;;;;13.25;4.30;;;10.60;99.90;;;;;;5052028;28;20029;-80
2021/04/27 04:05:03;;;;;;;17.05;4.85;;;10.50;99.90;;;;;;5052042;28;20029;-80
2021/04/27 04:07:29;;;;;;;12.07;3.80;;;10.60;99.90;;;;;;5052072;28;20027;-80
2021/04/27 04:09:54;;;;;;;20.17;5.35;;;10.70;99.90;;;;;;5052117;28;20107;-80
2021/04/27 04:12:20;;;;;;;29.58;4.95;;;10.80;99.90;;;;;;5051379;28;20216;-80
2021/04/27 04:14:46;;;;;;;34.92;4.82;;;10.80;99.90;;;;;;5050913;28;20032;-80
2021/04/27 04:17:11;;;;;;;19.92;5.22;;;10.80;99.90;;;;;;5051489;28;20099;-80
2021/04/27 04:19:38;;;;;;;14.80;4.90;;;10.80;99.90;;;;;;5051779;28;20371;-80
2021/04/27 04:22:05;;;;;;;8.75;4.88;;;10.70;99.90;;;;;;5050853;28;20029;-80
2021/04/27 04:24:30;;;;;;;18.65;4.78;;;10.70;99.90;;;;;;5051678;28;20609;-80
2021/04/27 04:26:56;;;;;;;7.00;3.80;;;10.70;99.90;;;;;;5040990;28;20040;-79
2021/04/27 04:29:24;;;;;;;4.35;3.95;;;10.70;99.90;;;;;;5029986;28;20025;-80
2021/04/27 04:31:51;;;;;;;5.03;3.75;;;10.70;99.90;;;;;;5030282;28;20057;-80
2021/04/27 04:34:17;;;;;;;3.65;2.78;;;10.70;99.90;;;;;;5029926;28;20075;-80
2021/04/27 04:36:43;;;;;;;6.85;3.58;;;10.70;99.90;;;;;;5035622;28;20029;-80
2021/04/27 04:39:09;;;;;;;6.03;3.75;;;10.70;99.90;;;;;;5030907;28;20602;-80
2021/04/27 04:41:35;;;;;;;9.35;3.90;;;10.70;99.90;;;;;;5029351;28;20033;-80
2021/04/27 04:44:01;;;;;;;7.65;3.67;;;10.70;99.90;;;;;;5032206;28;20029;-80
2021/04/27 04:46:27;;;;;;;27.42;4.35;;;10.80;99.90;;;;;;5029539;28;20407;-80
2021/04/27 04:48:57;;;;;;;40.80;4.80;;;10.70;99.90;;;;;;5030111;28;20055;-80
2021/04/27 04:51:23;;;;;;;36.67;4.85;;;10.70;99.90;;;;;;5030449;28;20021;-80
2021/04/27 04:53:49;;;;;;;16.88;3.97;;;10.70;99.90;;;;;;5028947;28;20510;-85
2021/04/27 04:56:14;;;;;;;13.80;4.65;;;10.70;99.90;;;;;;5030919;28;20021;-81
2021/04/27 04:58:40;;;;;;;17.98;4.00;;;10.70;99.90;;;;;;5030046;28;20026;-80
2021/04/27 05:01:06;;;;;;;5.47;4.38;;;10.70;99.90;;;;;;5028937;28;20046;-80
2021/04/27 05:03:32;;;;;;;4.80;4.07;;;10.70;99.90;;;;;;5030074;28;20487;-80
2021/04/27 05:05:57;;;;;;;21.98;4.47;;;10.70;99.90;;;;;;5029458;28;20542;-80
2021/04/27 05:08:27;;;;;;;27.10;3.85;;;10.70;99.90;;;;;;5038007;28;20112;-80
2021/04/27 05:10:52;;;;;;;25.33;4.05;;;10.70;99.90;;;;;;5033814;28;20025;-80
2021/04/27 05:13:18;;;;;;;15.90;4.35;;;10.70;99.90;;;;;;5043223;28;20025;-80
2021/04/27 05:15:44;;;;;;;5.10;4.60;;;10.80;99.90;;;;;;5040931;28;20025;-80
2021/04/27 05:18:10;;;;;;;4.90;3.60;;;10.70;99.90;;;;;;5042860;28;20031;-80
2021/04/27 05:20:36;;;;;;;13.20;4.35;;;10.80;99.90;;;;;;5042780;28;20029;-80
2021/04/27 05:23:02;;;;;;;21.30;4.68;;;10.70;99.90;;;;;;5039527;28;20040;-80
2021/04/27 05:25:29;;;;;;;4.50;4.10;;;10.70;99.90;;;;;;5040597;28;20071;-81
2021/04/27 05:27:54;;;;;;;7.55;4.20;;;10.70;99.90;;;;;;5051030;28;20036;-80
2021/04/27 05:30:21;;;;;;;10.48;4.57;;;10.70;99.90;;;;;;5043410;28;20017;-80
2021/04/27 05:32:46;;;;;;;10.82;4.90;;;10.70;99.90;;;;;;5050909;28;20025;-80
2021/04/27 05:35:13;;;;;;;12.55;4.38;;;10.60;99.90;;;;;;5048003;28;20029;-80
2021/04/27 05:37:39;;;;;;;3.90;3.50;;;10.60;99.90;;;;;;5038366;28;20369;-80
2021/04/27 05:40:05;;;;;;;12.27;4.00;;;10.60;99.90;;;;;;5034209;28;20037;-80
2021/04/27 05:42:31;;;;;;;7.68;3.92;;;10.70;99.90;;;;;;5034525;28;20034;-80
2021/04/27 05:44:57;;;;;;;4.20;3.80;;;10.70;99.90;;;;;;5034800;28;20426;-80
2021/04/27 05:47:23;;;;;;;5.10;4.65;;;10.70;99.90;;;;;;5044247;28;20108;-80
2021/04/27 05:49:49;;;;;;;4.55;4.13;;;10.80;99.90;;;;;;5035368;28;20156;-76
2021/04/27 05:52:15;;;;;;;4.70;4.00;;;10.80;99.90;;;;;;5038914;28;20052;-77
2021/04/27 05:54:40;;;;;;;7.32;4.28;;;10.80;99.90;;;;;;5042306;28;20071;-77
2021/04/27 05:57:06;;;;;;;4.28;3.70;;;10.90;99.90;;;;;;5050692;28;20051;-77
2021/04/27 05:59:33;;;;;;;4.13;3.72;;;10.80;99.90;;;;;;5039595;28;20022;-77
2021/04/27 06:01:58;;;;;;;5.03;3.97;;;10.80;99.90;;;;;;5050314;28;20490;-77
2021/04/27 06:04:24;;;;;;;5.05;4.28;;;10.80;99.90;;;;;;5039296;28;20029;-77
2021/04/27 06:06:50;;;;;;;5.53;4.95;;;10.80;99.90;;;;;;5050561;28;20079;-77
2021/04/27 06:09:17;;;;;;;6.10;5.10;;;10.90;99.90;;;;;;5038225;28;20497;-77
2021/04/27 06:11:43;;;;;;;4.45;4.05;;;11.00;99.90;;;;;;5033966;28;20040;-77
2021/04/27 06:14:10;;;;;;;4.10;3.63;;;11.00;99.90;;;;;;5034893;28;20040;-77
2021/04/27 06:16:36;;;;;;;4.53;3.35;;;11.00;99.90;;;;;;5033443;28;20112;-77
2021/04/27 06:19:02;;;;;;;4.97;4.57;;;11.10;99.90;;;;;;5031187;28;20107;-77
2021/04/27 06:21:29;;;;;;;4.93;4.43;;;11.10;99.90;;;;;;5030688;28;20030;-78
2021/04/27 06:23:55;;;;;;;4.97;4.43;;;11.10;99.90;;;;;;5037763;28;20022;-75
2021/04/27 06:26:22;;;;;;;5.40;4.90;;;11.10;99.90;;;;;;5039532;28;20025;-76
2021/04/27 06:28:49;;;;;;;4.45;4.05;;;11.20;99.90;;;;;;5032522;28;20026;-75
2021/04/27 06:31:15;;;;;;;4.47;4.07;;;11.20;99.90;;;;;;5040714;28;20599;-76
2021/04/27 06:33:41;;;;;;;5.68;4.70;;;11.20;99.90;;;;;;5042917;28;20027;-76
2021/04/27 06:36:07;;;;;;;5.22;4.72;;;11.30;99.90;;;;;;5039514;28;20025;-75
2021/04/27 06:38:32;;;;;;;5.03;4.60;;;11.40;99.90;;;;;;5071620;28;20446;-75
2021/04/27 06:40:59;;;;;;;4.95;4.45;;;11.40;99.90;;;;;;5045950;28;20025;-76
2021/04/27 06:43:25;;;;;;;4.75;4.35;;;11.50;99.90;;;;;;5040343;28;20042;-76
2021/04/27 06:45:50;;;;;;;6.03;3.47;;;11.50;99.90;;;;;;5042268;28;20029;-76
2021/04/27 06:48:16;;;;;;;4.20;3.80;;;11.50;99.90;;;;;;5044880;28;20569;-76
2021/04/27 06:50:43;;;;;;;6.63;4.03;;;11.60;99.90;;;;;;5053134;28;20394;-76
2021/04/27 06:53:11;;;;;;;3.70;3.40;;;11.60;99.90;;;;;;5050581;28;20483;-76
2021/04/27 06:55:37;;;;;;;3.90;3.50;;;11.70;99.90;;;;;;5047751;28;20475;-76
2021/04/27 06:58:11;;;;;;;3.20;2.95;;;11.70;99.90;;;;;;5033293;28;20100;-77
2021/04/27 07:00:38;;;;;;;3.47;2.97;;;11.70;99.90;;;;;;5030777;28;20068;-74
2021/04/27 07:03:04;;;;;;;4.85;3.63;;;11.80;99.90;;;;;;5029851;28;21450;-74
2021/04/27 07:05:31;;;;;;;3.47;3.17;;;11.90;99.90;;;;;;5030648;28;20025;-74
2021/04/27 07:07:57;;;;;;;5.97;3.25;;;11.90;99.90;;;;;;5035301;28;20033;-74
2021/04/27 07:10:24;;;;;;;3.53;3.22;;;12.00;99.90;;;;;;5032750;28;20048;-74
2021/04/27 07:12:50;;;;;;;3.30;2.80;;;12.10;99.90;;;;;;5034092;28;20072;-74
2021/04/27 07:15:16;;;;;;;1.40;1.30;;;12.20;99.90;;;;;;5034785;28;20017;-74
2021/04/27 07:17:42;;;;;;;3.08;1.80;;;12.10;99.90;;;;;;5034427;28;20036;-74
2021/04/27 07:20:09;;;;;;;2.85;2.55;;;12.10;99.90;;;;;;5031265;28;20029;-74
2021/04/27 07:22:35;;;;;;;1.75;1.65;;;12.00;99.90;;;;;;5039539;28;20091;-75
2021/04/27 07:25:00;;;;;;;2.08;1.83;;;12.20;99.90;;;;;;5036592;28;20486;-75
2021/04/27 07:27:26;;;;;;;2.22;2.03;;;12.30;99.90;;;;;;5039309;28;20040;-75
2021/04/27 07:29:52;;;;;;;6.13;2.85;;;12.30;99.90;;;;;;5039757;28;20025;-74
2021/04/27 07:32:18;;;;;;;3.65;1.98;;;12.40;99.90;;;;;;5034597;28;20036;-75
2021/04/27 07:34:44;;;;;;;2.35;1.10;;;12.50;99.90;;;;;;5036591;28;20030;-75
2021/04/27 07:37:09;;;;;;;1.45;1.35;;;12.60;99.90;;;;;;5034545;28;20033;-75
2021/04/27 07:39:35;;;;;;;1.42;1.33;;;12.70;99.90;;;;;;5034699;28;20022;-74
2021/04/27 07:42:01;;;;;;;3.00;1.45;;;12.70;99.90;;;;;;5040053;28;20033;-75
2021/04/27 07:44:27;;;;;;;1.65;1.55;;;12.80;99.90;;;;;;5042435;28;20025;-75
2021/04/27 07:46:53;;;;;;;0.93;0.93;;;12.80;99.90;;;;;;5038005;28;20089;-75
2021/04/27 07:49:19;;;;;;;1.13;1.02;;;12.80;99.90;;;;;;5033568;28;20104;-74
2021/04/27 07:51:45;;;;;;;1.23;1.17;;;13.00;99.90;;;;;;5032227;28;20479;-75
2021/04/27 07:54:11;;;;;;;1.60;1.50;;;13.00;99.90;;;;;;5037958;28;20498;-75
2021/04/27 07:56:37;;;;;;;1.20;1.10;;;13.00;99.90;;;;;;5033054;28;20072;-75
2021/04/27 07:59:04;;;;;;;1.83;1.73;;;13.20;99.90;;;;;;5038457;28;20045;-75
2021/04/27 08:01:32;;;;;;;3.00;1.60;;;13.30;99.90;;;;;;5035943;28;20048;-75
2021/04/27 08:03:58;;;;;;;1.75;1.65;;;13.10;99.90;;;;;;5035380;28;20021;-74
2021/04/27 08:06:24;;;;;;;1.00;1.00;;;13.30;99.90;;;;;;5034129;28;20022;-74
2021/04/27 08:08:49;;;;;;;0.75;0.75;;;13.40;99.90;;;;;;5035596;28;20479;-74
2021/04/27 08:11:16;;;;;;;0.65;0.65;;;13.40;99.90;;;;;;5031171;28;20026;-74
2021/04/27 08:13:42;;;;;;;0.80;0.80;;;13.40;99.90;;;;;;5036192;28;20037;-74
2021/04/27 08:16:09;;;;;;;0.88;0.82;;;13.50;99.90;;;;;;5030757;28;20026;-74
2021/04/27 08:18:37;;;;;;;1.60;1.00;;;13.50;99.90;;;;;;5033116;28;20049;-74
2021/04/27 08:21:07;;;;;;;1.85;0.95;;;13.60;99.90;;;;;;5036524;28;20063;-74
2021/04/27 08:23:35;;;;;;;1.20;1.10;;;13.60;99.90;;;;;;5035300;28;20041;-74
2021/04/27 08:26:02;;;;;;;0.80;0.80;;;13.70;99.90;;;;;;5031722;28;20033;-75
2021/04/27 08:28:27;;;;;;;0.93;0.85;;;13.80;99.90;;;;;;5035966;28;20037;-74
2021/04/27 08:30:54;;;;;;;1.02;1.00;;;13.80;99.90;;;;;;5035945;28;20025;-74
2021/04/27 08:33:20;;;;;;;1.23;0.90;;;13.90;99.90;;;;;;5039685;28;20029;-74
2021/04/27 08:35:49;;;;;;;0.90;0.63;;;14.00;99.90;;;;;;5034737;28;20040;-74
2021/04/27 08:38:15;;;;;;;2.28;1.00;;;14.10;99.90;;;;;;5038914;28;20075;-74
2021/04/27 08:40:42;;;;;;;1.08;0.90;;;14.20;99.90;;;;;;5038407;28;21410;-74
2021/04/27 08:43:08;;;;;;;2.70;1.10;;;14.20;99.90;;;;;;5042340;28;20057;-74
2021/04/27 08:45:34;;;;;;;1.00;0.90;;;14.30;99.90;;;;;;5033923;28;21330;-75
2021/04/27 08:48:01;;;;;;;1.00;0.88;;;14.40;99.90;;;;;;5036919;28;20112;-75
2021/04/27 08:50:27;;;;;;;1.08;0.80;;;14.40;99.90;;;;;;5037537;28;20072;-75
2021/04/27 08:52:54;;;;;;;2.00;0.70;;;14.50;99.90;;;;;;5041391;28;20029;-74
2021/04/27 08:55:20;;;;;;;1.00;1.00;;;14.50;99.90;;;;;;5033008;28;20104;-74
2021/04/27 08:57:48;;;;;;;1.00;1.00;;;14.50;99.90;;;;;;5034092;28;20495;-75
2021/04/27 09:00:17;;;;;;;0.85;0.85;;;14.50;99.90;;;;;;5030761;28;20044;-75
2021/04/27 09:02:45;;;;;;;1.50;1.40;;;14.40;99.90;;;;;;5033750;28;20056;-75
2021/04/27 09:05:28;;;;;;;0.60;0.60;;;14.40;99.90;;;;;;5037314;28;20086;-75
2021/04/27 09:07:56;;;;;;;0.73;0.73;;;14.30;99.90;;;;;;5034461;28;20481;-75
2021/04/27 09:10:34;;;;;;;2.17;1.35;;;14.50;99.90;;;;;;5038026;28;20026;-75
2021/04/27 09:13:09;;;;;;;2.28;1.92;;;14.70;99.90;;;;;;5040390;28;20026;-75
2021/04/27 09:15:47;;;;;;;2.35;1.80;;;14.70;99.90;;;;;;5038302;28;20025;-75
2021/04/27 09:18:24;;;;;;;1.77;1.35;;;14.60;99.90;;;;;;5039086;28;20057;-75
2021/04/27 09:20:52;;;;;;;3.03;1.98;;;14.60;99.90;;;;;;5039552;28;20017;-75
2021/04/27 09:23:18;;;;;;;3.55;1.77;;;14.70;99.90;;;;;;5030660;28;20033;-75
2021/04/27 09:26:09;;;;;;;1.92;1.52;;;14.80;99.90;;;;;;5045134;28;20033;-75
2021/04/27 09:28:36;;;;;;;1.38;1.27;;;14.90;99.90;;;;;;5038744;28;20029;-75
2021/04/27 09:31:21;;;;;;;1.80;1.70;;;15.00;99.90;;;;;;5047696;28;20093;-77
2021/04/27 09:33:48;;;;;;;3.35;1.95;;;15.30;99.90;;;;;;5034986;28;20403;-77
2021/04/27 09:36:24;;;;;;;2.90;2.70;;;15.20;99.90;;;;;;5039773;28;20498;-77
2021/04/27 09:38:54;;;;;;;1.70;1.60;;;15.00;99.90;;;;;;5038850;28;20099;-77
2021/04/27 09:41:24;;;;;;;2.15;1.50;;;14.90;99.90;;;;;;5033363;28;20080;-77
2021/04/27 09:43:51;;;;;;;1.30;1.20;;;14.90;99.90;;;;;;5040462;28;20493;-76
2021/04/27 09:46:19;;;;;;;1.20;1.10;;;14.80;99.90;;;;;;5041216;28;20024;-77
2021/04/27 09:48:48;;;;;;;1.35;1.25;;;14.70;99.90;;;;;;5041184;28;20013;-76
2021/04/27 09:51:14;;;;;;;0.80;0.80;;;14.70;99.90;;;;;;5037440;28;20018;-76
2021/04/27 09:53:48;;;;;;;0.80;0.80;;;14.60;99.90;;;;;;5039726;28;20120;-77
2021/04/27 09:56:34;;;;;;;0.70;0.70;;;14.70;99.90;;;;;;5040680;28;20382;-77
2021/04/27 09:59:07;;;;;;;0.82;0.82;;;14.80;99.90;;;;;;5042293;28;20037;-76
2021/04/27 10:01:33;;;;;;;0.88;0.82;;;14.80;99.90;;;;;;5037929;28;20056;-76
2021/04/27 10:03:59;;;;;;;1.67;1.02;;;14.70;99.90;;;;;;5034082;28;20022;-76
2021/04/27 10:06:27;;;;;;;1.25;1.23;;;14.60;99.90;;;;;;5042131;28;20037;-79
2021/04/27 10:08:54;;;;;;;0.98;0.85;;;14.60;99.90;;;;;;5039902;28;20023;-80
2021/04/27 10:11:22;;;;;;;1.40;1.17;;;14.70;99.90;;;;;;5041024;28;20021;-80
2021/04/27 10:13:48;;;;;;;2.78;1.25;;;14.40;99.90;;;;;;5038562;28;20025;-80
2021/04/27 10:16:15;;;;;;;1.75;1.20;;;14.30;99.90;;;;;;5037697;28;20387;-80
2021/04/27 10:18:42;;;;;;;1.10;1.00;;;14.40;99.90;;;;;;5046558;28;20487;-80
2021/04/27 10:21:11;;;;;;;1.77;0.93;;;14.40;99.90;;;;;;5041749;28;20021;-80
2021/04/27 10:23:42;;;;;;;2.13;1.25;;;14.40;99.90;;;;;;5038888;28;20071;-80
2021/04/27 10:26:09;;;;;;;1.40;1.30;;;14.60;99.90;;;;;;5037604;28;20527;-81
2021/04/27 10:28:58;;;;;;;1.30;1.20;;;14.70;99.90;;;;;;5043868;28;20053;-81
2021/04/27 10:31:25;;;;;;;4.00;2.25;;;14.90;99.90;;;;;;5039739;28;20021;-81
2021/04/27 10:34:08;;;;;;;2.10;1.80;;;14.80;99.90;;;;;;5040772;28;20403;-82
2021/04/27 10:36:58;;;;;;;2.08;1.58;;;14.70;99.90;;;;;;5031590;28;20030;-82
2021/04/27 10:39:43;;;;;;;2.30;1.40;;;14.70;99.90;;;;;;5035200;28;20026;-81
2021/04/27 10:42:22;;;;;;;4.72;1.85;;;14.80;99.90;;;;;;5039432;28;20024;-82
2021/04/27 10:44:54;;;;;;;2.00;1.80;;;14.80;99.90;;;;;;5032521;28;20487;-82
2021/04/27 10:47:21;;;;;;;1.77;1.67;;;15.10;99.90;;;;;;5040519;28;20461;-81
2021/04/27 10:49:47;;;;;;;2.85;2.00;;;14.90;99.90;;;;;;5042286;28;20029;-81
2021/04/27 10:52:27;;;;;;;2.70;2.17;;;14.80;99.90;;;;;;5045180;28;20443;-80
2021/04/27 10:55:12;;;;;;;2.20;1.90;;;14.80;99.90;;;;;;5042720;28;20514;-80
2021/04/27 10:57:46;;;;;;;1.65;1.52;;;14.90;99.90;;;;;;5032008;28;20104;-77
2021/04/27 11:00:34;;;;;;;3.17;1.80;;;15.20;99.90;;;;;;5031138;28;20045;-77
2021/04/27 11:03:25;;;;;;;3.25;1.88;;;15.20;99.90;;;;;;5031884;28;20026;-77
2021/04/27 11:05:56;;;;;;;3.53;2.53;;;15.50;99.90;;;;;;5031898;28;20506;-77
2021/04/27 11:08:22;;;;;;;2.53;1.83;;;15.80;99.90;;;;;;5032892;28;20031;-77
2021/04/27 11:10:50;;;;;;;2.88;2.05;;;15.90;99.90;;;;;;5031077;28;20037;-77
2021/04/27 11:13:16;;;;;;;3.65;3.35;;;15.90;99.90;;;;;;5035918;28;20032;-77
2021/04/27 11:15:44;;;;;;;3.00;2.70;;;16.00;99.90;;;;;;5032919;28;20025;-77
2021/04/27 11:18:18;;;;;;;2.42;2.10;;;15.80;99.90;;;;;;5034268;28;20030;-77
2021/04/27 11:20:52;;;;;;;3.80;1.90;;;15.80;99.90;;;;;;5031507;28;20025;-77
2021/04/27 11:23:45;;;;;;;5.30;2.05;;;15.50;99.90;;;;;;5031412;28;20028;-77
2021/04/27 11:26:32;;;;;;;2.95;2.17;;;15.80;99.90;;;;;;5032685;28;20116;-77
2021/04/27 11:29:05;;;;;;;3.50;2.10;;;15.90;99.90;;;;;;5031502;28;20075;-77
2021/04/27 11:31:51;;;;;;;2.50;2.05;;;15.70;99.90;;;;;;5030450;28;20033;-77
2021/04/27 11:34:17;;;;;;;3.03;2.00;;;15.70;99.90;;;;;;5034775;28;20044;-77
2021/04/27 11:36:43;;;;;;;2.10;1.88;;;15.60;99.90;;;;;;5031289;28;20495;-77
2021/04/27 11:39:18;;;;;;;4.00;1.90;;;15.70;99.90;;;;;;5035683;28;20037;-77
2021/04/27 11:41:49;;;;;;;3.40;1.60;;;15.60;99.90;;;;;;5030446;28;20018;-77
2021/04/27 11:44:17;;;;;;;1.80;1.70;;;15.40;99.90;;;;;;5036329;28;20048;-77
2021/04/27 11:47:04;;;;;;;3.53;1.58;;;15.60;99.90;;;;;;5031799;28;20025;-77
2021/04/27 11:49:55;;;;;;;1.52;1.42;;;16.00;99.90;;;;;;5041939;28;20450;-77
2021/04/27 11:52:39;;;;;;;1.90;1.58;;;16.30;99.90;;;;;;5048124;28;20162;-77
2021/04/27 11:55:10;;;;;;;2.28;1.98;;;16.50;99.90;;;;;;5041534;28;20078;-77
2021/04/27 11:57:42;;;;;;;3.63;1.80;;;16.30;99.90;;;;;;5038283;28;20082;-77
2021/04/27 12:00:09;;;;;;;5.07;2.15;;;16.20;99.90;;;;;;5039328;28;20116;-77
2021/04/27 12:02:35;;;;;;;2.78;1.77;;;16.40;99.90;;;;;;5029020;28;20068;-77
2021/04/27 12:05:01;;;;;;;2.20;1.67;;;16.30;99.90;;;;;;5032141;28;20025;-77
2021/04/27 12:07:28;;;;;;;4.47;1.60;;;16.20;99.90;;;;;;5033012;28;20483;-77
2021/04/27 12:09:56;;;;;;;3.47;1.95;;;16.30;99.90;;;;;;5032663;28;20821;-77
2021/04/27 12:12:23;;;;;;;2.38;1.70;;;16.40;99.90;;;;;;5044418;28;20484;-77
2021/04/27 12:14:54;;;;;;;1.50;1.10;;;16.70;99.90;;;;;;5041508;28;20466;-77
2021/04/27 12:17:28;;;;;;;1.70;1.60;;;16.80;99.90;;;;;;5032392;28;20021;-77
2021/04/27 12:20:08;;;;;;;4.10;2.03;;;17.00;99.90;;;;;;5032683;28;20049;-77
2021/04/27 12:22:50;;;;;;;;;;;17.20;99.90;;;;;;5032239;28;20033;-77
2021/04/27 12:25:26;;;;;;;2.85;1.70;;;17.00;99.90;;;;;;5036103;28;19959;-77
2021/04/27 12:28:04;;;;;;;2.10;1.50;;;17.10;99.90;;;;;;5050082;28;20051;-78
2021/04/27 12:30:31;;;;;;;4.93;1.70;;;16.90;99.90;;;;;;5036070;28;20033;-78
2021/04/27 12:33:16;;;;;;;1.75;1.60;;;16.90;99.90;;;;;;5034997;28;20033;-77
2021/04/27 12:35:42;;;;;;;2.47;1.60;;;16.80;99.90;;;;;;5037601;28;20513;-78
2021/04/27 12:38:13;;;;;;;3.58;1.60;;;17.00;99.90;;;;;;5038866;28;20332;-78
2021/04/27 12:40:42;;;;;;;2.38;1.55;;;16.80;99.90;;;;;;5070392;28;20025;-78
2021/04/27 12:43:10;;;;;;;2.17;1.05;;;16.90;99.90;;;;;;5044000;28;20017;-77
2021/04/27 12:45:53;;;;;;;3.00;1.45;;;16.70;99.90;;;;;;5042002;28;20047;-78
2021/04/27 12:48:21;;;;;;;1.75;1.35;;;16.70;99.90;;;;;;5041468;28;20112;-77
2021/04/27 12:51:01;;;;;;;3.40;1.88;;;16.80;99.90;;;;;;5042179;28;20033;-77
2021/04/27 12:53:56;;;;;;;;;;;16.90;99.90;;;;;;5036426;28;20030;-77